createdAt,value
2019-05-13T00:00:16.043Z,85.09
2019-05-13T00:02:44.476Z,85.48
2019-05-13T00:05:14.626Z,86.21
2019-05-13T00:07:43.908Z,85.97
2019-05-13T00:10:14.783Z,86.58
2019-05-13T00:12:44.538Z,86.28
2019-05-13T00:15:14.219Z,86.97
2019-05-13T00:17:44.660Z,87.14
2019-05-13T00:20:14.136Z,87.90
2019-05-13T00:22:44.845Z,88.34
2019-05-13T00:25:14.633Z,88.86
2019-05-13T00:27:44.450Z,89.34
2019-05-13T00:30:14.463Z,89.36
2019-05-13T00:32:44.622Z,89.92
2019-05-13T00:35:14.208Z,89.75
2019-05-13T00:37:44.281Z,90.45
2019-05-13T00:40:14.407Z,91.21
2019-05-13T00:42:44.068Z,91.32
2019-05-13T00:45:14.618Z,91.42
2019-05-13T00:47:43.839Z,91.43
2019-05-13T00:50:14.338Z,91.65
2019-05-13T00:52:44.855Z,92.25
2019-05-13T00:55:14.817Z,92.52
2019-05-13T00:57:43.957Z,92.66
2019-05-13T01:00:14.254Z,93.03
2019-05-13T01:02:44.577Z,93.72
2019-05-13T01:05:14.741Z,93.89
2019-05-13T01:07:44.313Z,93.82
2019-05-13T01:10:13.855Z,94.29
2019-05-13T01:12:44.033Z,94.25
2019-05-13T01:15:13.549Z,94.93
2019-05-13T01:17:44.430Z,95.23
2019-05-13T01:20:14.387Z,95.42
2019-05-13T01:22:44.081Z,95.16
2019-05-13T01:25:14.457Z,95.80
2019-05-13T01:27:44.596Z,95.86
2019-05-13T01:30:14.158Z,96.41
2019-05-13T01:32:44.896Z,96.21
2019-05-13T01:35:14.920Z,96.88
2019-05-13T01:37:46.201Z,97.28
2019-05-13T01:40:14.124Z,97.46
2019-05-13T01:42:44.478Z,97.83
2019-05-13T01:45:14.137Z,98.17
2019-05-13T01:47:44.131Z,98.84
2019-05-13T01:50:14.319Z,98.49
2019-05-13T01:52:44.590Z,98.92
2019-05-13T01:55:14.541Z,99.21
2019-05-13T01:57:44.264Z,99.80
2019-05-13T02:00:14.381Z,100.00
2019-05-13T02:02:44.602Z,100.00
2019-05-13T02:05:13.994Z,100.00
2019-05-13T02:07:56.079Z,100.00
2019-05-13T02:10:15.298Z,100.00
2019-05-13T02:12:44.515Z,100.00
2019-05-13T02:15:14.716Z,100.00
2019-05-13T02:17:44.660Z,100.00
2019-05-13T02:20:14.712Z,100.00
2019-05-13T02:22:44.413Z,100.00
2019-05-13T02:25:13.909Z,100.00
2019-05-13T02:27:44.040Z,100.00
2019-05-13T02:30:15.953Z,100.00
2019-05-13T02:32:43.458Z,100.00
2019-05-13T02:35:13.874Z,100.00
2019-05-13T02:37:43.399Z,100.00
2019-05-13T02:40:13.471Z,100.00
2019-05-13T02:42:43.719Z,100.00
2019-05-13T02:45:12.843Z,100.00
2019-05-13T02:47:44.314Z,100.00
2019-05-13T02:50:12.979Z,100.00
2019-05-13T02:52:44.281Z,100.00
2019-05-13T02:55:12.591Z,100.00
2019-05-13T02:57:43.595Z,100.00
2019-05-13T03:00:13.145Z,100.00
2019-05-13T03:02:43.768Z,100.00
2019-05-13T03:05:13.974Z,100.00
2019-05-13T03:07:43.396Z,100.00
2019-05-13T03:10:14.098Z,100.00
2019-05-13T03:12:43.107Z,100.00
2019-05-13T03:15:13.541Z,100.00
2019-05-13T03:17:53.373Z,100.00
2019-05-13T03:20:22.899Z,100.00
2019-05-13T03:22:52.835Z,100.00
2019-05-13T03:25:22.758Z,100.00
2019-05-13T03:27:53.933Z,100.00
2019-05-13T03:30:25.309Z,100.00
2019-05-13T03:33:00.570Z,100.00
2019-05-13T03:35:26.470Z,100.00
2019-05-13T03:37:53.552Z,100.00
2019-05-13T03:40:23.122Z,100.00
2019-05-13T03:42:53.793Z,100.00
2019-05-13T03:45:24.797Z,100.00
2019-05-13T03:47:55.705Z,100.00
2019-05-13T03:50:24.185Z,100.00
2019-05-13T03:52:52.862Z,100.00
2019-05-13T03:55:23.244Z,100.00
2019-05-13T03:57:53.291Z,100.00
2019-05-13T04:00:23.590Z,100.00
2019-05-13T04:02:53.132Z,100.00
2019-05-13T04:05:22.909Z,100.00
2019-05-13T04:07:52.488Z,100.00
2019-05-13T04:10:22.810Z,100.00
2019-05-13T04:12:52.856Z,100.00
2019-05-13T04:15:23.406Z,100.00
2019-05-13T04:17:53.257Z,100.00
2019-05-13T04:20:23.201Z,100.00
2019-05-13T04:22:53.585Z,100.00
2019-05-13T04:25:23.391Z,100.00
2019-05-13T04:27:53.434Z,100.00
2019-05-13T04:30:22.610Z,100.00
2019-05-13T04:32:53.376Z,100.00
2019-05-13T04:35:23.476Z,100.00
2019-05-13T04:37:53.087Z,100.00
2019-05-13T04:40:23.115Z,100.00
2019-05-13T04:42:53.381Z,100.00
2019-05-13T04:45:23.922Z,100.00
2019-05-13T04:47:53.016Z,100.00
2019-05-13T04:50:22.673Z,100.00
2019-05-13T04:52:52.963Z,100.00
2019-05-13T04:55:23.097Z,100.00
2019-05-13T04:57:53.452Z,100.00
2019-05-13T05:01:04.825Z,100.00
2019-05-13T05:03:48.011Z,100.00
2019-05-13T05:06:38.324Z,100.00
2019-05-13T05:09:15.556Z,100.00
2019-05-13T05:12:17.153Z,100.00
2019-05-13T05:15:18.765Z,100.00
2019-05-13T05:18:23.713Z,100.00
2019-05-13T05:21:13.382Z,100.00
2019-05-13T05:23:59.195Z,100.00
2019-05-13T05:26:33.167Z,100.00
2019-05-13T05:29:21.729Z,100.00
2019-05-13T05:32:05.080Z,100.00
2019-05-13T05:34:58.479Z,100.00
2019-05-13T05:37:46.236Z,100.00
2019-05-13T05:40:28.107Z,100.00
2019-05-13T05:42:47.024Z,100.00
2019-05-13T05:45:16.905Z,100.00
2019-05-13T05:47:46.783Z,100.00
2019-05-13T05:50:15.335Z,100.00
2019-05-13T05:52:43.848Z,100.00
2019-05-13T05:55:12.500Z,100.00
2019-05-13T05:57:44.287Z,100.00
2019-05-13T06:00:14.210Z,98.50
2019-05-13T06:02:45.917Z,96.05
2019-05-13T06:05:14.578Z,93.64
2019-05-13T06:07:43.112Z,90.23
2019-05-13T06:10:12.361Z,89.55
2019-05-13T06:12:42.446Z,86.04
2019-05-13T06:15:12.322Z,83.87
2019-05-13T06:17:41.440Z,81.49
2019-05-13T06:20:13.247Z,79.23
2019-05-13T06:22:42.393Z,77.98
2019-05-13T06:25:14.536Z,76.87
2019-05-13T06:27:42.231Z,75.58
2019-05-13T06:30:12.637Z,74.83
2019-05-13T06:32:41.893Z,75.41
2019-05-13T06:35:11.599Z,76.37
2019-05-13T06:37:41.431Z,75.42
2019-05-13T06:40:12.357Z,75.06
2019-05-13T06:42:41.706Z,72.96
2019-05-13T06:45:12.377Z,72.85
2019-05-13T06:47:41.310Z,74.08
2019-05-13T06:50:11.607Z,71.20
2019-05-13T06:52:42.497Z,69.68
2019-05-13T06:55:11.609Z,71.70
2019-05-13T06:57:42.213Z,71.42
2019-05-13T07:00:12.179Z,68.15
2019-05-13T07:02:42.725Z,68.17
2019-05-13T07:05:12.094Z,71.56
2019-05-13T07:07:42.395Z,72.91
2019-05-13T07:10:12.738Z,69.51
2019-05-13T07:12:41.541Z,70.14
2019-05-13T07:15:11.599Z,70.18
2019-05-13T07:17:41.588Z,67.58
2019-05-13T07:20:11.768Z,66.71
2019-05-13T07:22:42.165Z,64.74
2019-05-13T07:25:11.520Z,67.58
2019-05-13T07:27:42.419Z,67.44
2019-05-13T07:30:11.405Z,66.72
2019-05-13T07:32:42.079Z,67.05
2019-05-13T07:35:14.138Z,68.49
2019-05-13T07:37:42.477Z,67.33
2019-05-13T07:40:11.790Z,64.88
2019-05-13T07:42:41.964Z,62.68
2019-05-13T07:45:12.172Z,62.57
2019-05-13T07:47:41.955Z,64.61
2019-05-13T07:50:12.675Z,64.99
2019-05-13T07:52:42.268Z,64.67
2019-05-13T07:55:11.984Z,64.51
2019-05-13T07:57:42.306Z,65.10
2019-05-13T08:00:12.598Z,65.62
2019-05-13T08:02:41.836Z,63.78
2019-05-13T08:05:12.062Z,63.51
2019-05-13T08:07:42.236Z,63.90
2019-05-13T08:10:11.989Z,62.16
2019-05-13T08:12:41.280Z,61.65
2019-05-13T08:15:11.919Z,63.18
2019-05-13T08:17:46.720Z,64.11
2019-05-13T08:20:12.701Z,64.12
2019-05-13T08:22:42.453Z,64.44
2019-05-13T08:25:12.607Z,64.53
2019-05-13T08:27:42.129Z,66.05
2019-05-13T08:30:11.997Z,66.11
2019-05-13T08:32:41.964Z,66.59
2019-05-13T08:35:12.544Z,67.48
2019-05-13T08:37:41.468Z,66.02
2019-05-13T08:40:12.034Z,65.90
2019-05-13T08:42:41.530Z,65.79
2019-05-13T08:45:12.042Z,66.65
2019-05-13T08:47:41.975Z,64.73
2019-05-13T08:50:12.161Z,65.18
2019-05-13T08:52:42.280Z,64.25
2019-05-13T08:55:15.523Z,65.33
2019-05-13T08:57:42.023Z,64.47
2019-05-13T09:00:13.738Z,63.69
2019-05-13T09:02:42.199Z,63.32
2019-05-13T09:05:12.336Z,62.61
2019-05-13T09:07:41.329Z,65.92
2019-05-13T09:10:12.216Z,63.90
2019-05-13T09:12:43.104Z,63.18
2019-05-13T09:15:11.901Z,63.03
2019-05-13T09:17:42.495Z,60.80
2019-05-13T09:20:11.619Z,59.01
2019-05-13T09:22:41.270Z,61.58
2019-05-13T09:25:12.353Z,60.67
2019-05-13T09:27:42.588Z,60.37
2019-05-13T09:30:11.980Z,59.79
2019-05-13T09:32:42.596Z,60.60
2019-05-13T09:35:12.033Z,58.75
2019-05-13T09:37:42.335Z,57.33
2019-05-13T09:40:12.054Z,57.98
2019-05-13T09:42:49.047Z,58.80
2019-05-13T09:45:12.291Z,59.50
2019-05-13T09:47:41.741Z,57.48
2019-05-13T09:50:27.618Z,54.54
2019-05-13T09:52:42.809Z,54.34
2019-05-13T09:55:25.308Z,54.85
2019-05-13T09:57:41.667Z,55.70
2019-05-13T10:00:12.222Z,54.59
2019-05-13T10:02:42.626Z,51.34
2019-05-13T10:05:11.807Z,51.05
2019-05-13T10:07:42.482Z,52.98
2019-05-13T10:10:11.960Z,54.24
2019-05-13T10:12:42.551Z,51.27
2019-05-13T10:15:12.547Z,50.30
2019-05-13T10:17:42.692Z,49.87
2019-05-13T10:20:12.562Z,46.44
2019-05-13T10:22:41.809Z,47.13
2019-05-13T10:25:13.954Z,48.64
2019-05-13T10:27:42.598Z,49.66
2019-05-13T10:30:14.202Z,46.86
2019-05-13T10:32:42.819Z,47.27
2019-05-13T10:35:13.271Z,48.41
2019-05-13T10:37:42.184Z,47.54
2019-05-13T10:40:11.750Z,47.91
2019-05-13T10:42:43.142Z,47.21
2019-05-13T10:45:12.819Z,46.42
2019-05-13T10:47:42.365Z,44.56
2019-05-13T10:50:11.187Z,45.80
2019-05-13T10:52:42.540Z,44.98
2019-05-13T10:55:12.599Z,45.90
2019-05-13T10:57:42.372Z,47.37
2019-05-13T11:00:12.184Z,45.96
2019-05-13T11:02:42.418Z,45.39
2019-05-13T11:05:12.321Z,45.81
2019-05-13T11:07:42.138Z,45.95
2019-05-13T11:10:13.270Z,45.52
2019-05-13T11:12:41.924Z,47.08
2019-05-13T11:15:12.010Z,46.13
2019-05-13T11:17:42.687Z,45.36
2019-05-13T11:20:12.438Z,43.26
2019-05-13T11:22:41.158Z,43.54
2019-05-13T11:25:12.338Z,45.22
2019-05-13T11:27:42.178Z,43.78
2019-05-13T11:30:11.133Z,43.81
2019-05-13T11:32:42.356Z,44.87
2019-05-13T11:35:12.893Z,44.58
2019-05-13T11:37:39.932Z,44.94
2019-05-13T11:40:11.960Z,43.70
2019-05-13T11:42:42.184Z,43.38
2019-05-13T11:45:11.670Z,42.67
2019-05-13T11:47:41.499Z,43.26
2019-05-13T11:50:11.691Z,42.70
2019-05-13T11:52:42.424Z,41.25
2019-05-13T11:55:12.985Z,41.10
2019-05-13T11:57:44.339Z,41.43
2019-05-13T12:00:13.684Z,42.55
2019-05-13T12:02:43.531Z,41.97
2019-05-13T12:05:12.639Z,41.76
2019-05-13T12:07:42.054Z,40.69
2019-05-13T12:10:12.513Z,41.27
2019-05-13T12:12:43.892Z,41.70
2019-05-13T12:15:42.465Z,42.52
2019-05-13T12:17:42.952Z,43.27
2019-05-13T12:20:13.601Z,41.69
2019-05-13T12:22:42.784Z,40.86
2019-05-13T12:25:13.809Z,41.38
2019-05-13T12:27:42.077Z,40.76
2019-05-13T12:30:12.485Z,41.69
2019-05-13T12:32:43.739Z,41.43
2019-05-13T12:35:13.336Z,43.28
2019-05-13T12:37:42.139Z,41.96
2019-05-13T12:40:11.060Z,41.86
2019-05-13T12:42:44.353Z,39.73
2019-05-13T12:45:13.915Z,40.02
2019-05-13T12:47:43.356Z,40.38
2019-05-13T12:50:13.642Z,40.28
2019-05-13T12:52:43.751Z,40.35
2019-05-13T12:57:41.986Z,40.01
2019-05-13T13:00:13.165Z,38.46
2019-05-13T13:02:49.171Z,39.16
2019-05-13T13:05:19.549Z,39.46
2019-05-13T13:07:42.699Z,39.15
2019-05-13T13:10:14.704Z,39.49
2019-05-13T13:12:42.262Z,38.98
2019-05-13T13:15:35.475Z,36.92
2019-05-13T13:17:41.550Z,37.36
2019-05-13T13:20:15.116Z,39.19
2019-05-13T13:22:41.807Z,38.11
2019-05-13T13:25:13.219Z,37.44
2019-05-13T13:28:03.157Z,37.59
2019-05-13T13:30:12.283Z,38.03
2019-05-13T13:32:45.364Z,36.41
2019-05-13T13:35:14.612Z,36.72
2019-05-13T13:37:46.039Z,36.64
2019-05-13T13:40:11.821Z,36.18
2019-05-13T13:42:43.083Z,37.06
2019-05-13T13:45:10.816Z,35.73
2019-05-13T13:47:39.298Z,35.46
2019-05-13T13:50:11.178Z,35.23
2019-05-13T13:52:39.333Z,35.34
2019-05-13T13:55:09.110Z,34.10
2019-05-13T13:57:38.057Z,34.51
2019-05-13T14:00:31.712Z,32.95
2019-05-13T14:02:38.203Z,32.75
2019-05-13T14:05:07.114Z,32.90
2019-05-13T14:06:35.507Z,40.75
2019-05-13T14:07:38.654Z,33.34
2019-05-13T14:10:07.447Z,32.87
2019-05-13T14:12:35.858Z,32.06
2019-05-13T14:15:05.823Z,33.16
2019-05-13T14:17:34.314Z,31.59
2019-05-13T14:20:02.738Z,32.50
2019-05-13T14:22:32.264Z,32.00
2019-05-13T14:25:01.090Z,31.67
2019-05-13T14:27:31.468Z,29.99
2019-05-13T14:30:01.354Z,30.09
2019-05-13T14:32:32.079Z,29.82
2019-05-13T14:35:02.222Z,29.80
2019-05-13T14:37:31.825Z,31.14
2019-05-13T14:40:02.486Z,30.96
2019-05-13T14:42:32.150Z,30.42
2019-05-13T14:45:01.939Z,30.75
2019-05-13T14:47:32.117Z,31.14
2019-05-13T14:50:02.101Z,30.59
2019-05-13T14:52:32.316Z,30.43
2019-05-13T14:55:02.206Z,31.12
2019-05-13T14:57:32.227Z,30.94
2019-05-13T15:00:02.419Z,29.57
2019-05-13T15:02:32.108Z,29.39
2019-05-13T15:05:02.680Z,30.33
2019-05-13T15:07:32.248Z,30.68
2019-05-13T15:10:02.437Z,30.23
2019-05-13T15:12:32.324Z,29.47
2019-05-13T15:15:01.636Z,29.95
2019-05-13T15:17:32.491Z,30.93
2019-05-13T15:20:01.864Z,29.12
2019-05-13T15:22:31.835Z,29.49
2019-05-13T15:25:02.761Z,30.52
2019-05-13T15:27:31.680Z,30.30
2019-05-13T15:30:14.454Z,29.77
2019-05-13T15:32:32.542Z,29.77
2019-05-13T15:35:02.119Z,29.79
2019-05-13T15:37:32.163Z,29.39
2019-05-13T15:40:02.289Z,29.97
2019-05-13T15:42:31.876Z,30.19
2019-05-13T15:45:02.099Z,30.47
2019-05-13T15:47:31.052Z,30.74
2019-05-13T15:50:02.424Z,31.05
2019-05-13T15:52:31.835Z,31.31
2019-05-13T15:55:01.571Z,30.58
2019-05-13T15:57:32.102Z,30.28
2019-05-13T16:00:01.971Z,30.63
2019-05-13T16:02:31.417Z,31.52
2019-05-13T16:05:02.091Z,31.31
2019-05-13T16:07:30.417Z,31.01
2019-05-13T16:09:58.833Z,31.69
2019-05-13T16:12:27.348Z,31.85
2019-05-13T16:14:55.923Z,31.92
2019-05-13T16:17:37.927Z,31.05
2019-05-13T16:19:54.570Z,31.56
2019-05-13T16:22:23.219Z,31.24
2019-05-13T16:24:52.411Z,31.31
2019-05-13T16:27:21.679Z,32.69
2019-05-13T16:29:51.661Z,33.42
2019-05-13T16:32:22.739Z,32.77
2019-05-13T16:34:51.841Z,32.45
2019-05-13T16:37:21.978Z,33.16
2019-05-13T16:39:52.052Z,32.54
2019-05-13T16:42:22.514Z,33.30
2019-05-13T16:44:51.803Z,33.48
2019-05-13T16:47:21.281Z,34.00
2019-05-13T16:49:49.735Z,33.94
2019-05-13T16:52:18.160Z,33.78
2019-05-13T16:54:46.651Z,33.18
2019-05-13T16:57:15.210Z,33.25
2019-05-13T16:59:43.642Z,33.73
2019-05-13T17:02:12.769Z,33.77
2019-05-13T17:04:41.536Z,33.45
2019-05-13T17:07:13.205Z,34.14
2019-05-13T17:09:41.731Z,33.67
2019-05-13T17:12:13.859Z,32.53
2019-05-13T17:14:41.577Z,32.43
2019-05-13T17:17:11.962Z,32.10
2019-05-13T17:19:42.271Z,32.22
2019-05-13T17:22:10.986Z,32.13
2019-05-13T17:24:39.445Z,32.64
2019-05-13T17:27:07.859Z,32.66
2019-05-13T17:29:36.272Z,32.98
2019-05-13T17:32:04.851Z,33.79
2019-05-13T17:34:33.275Z,34.15
2019-05-13T17:37:02.784Z,34.33
2019-05-13T17:39:32.135Z,34.66
2019-05-13T17:42:01.486Z,35.61
2019-05-13T17:44:31.763Z,36.11
2019-05-13T17:47:01.758Z,35.64
2019-05-13T17:49:31.865Z,36.09
2019-05-13T17:52:02.462Z,36.80
2019-05-13T17:54:31.824Z,37.26
2019-05-13T17:57:01.818Z,38.44
2019-05-13T17:59:31.482Z,39.15
2019-05-13T18:02:02.665Z,39.35
2019-05-13T18:04:31.410Z,39.46
2019-05-13T18:07:01.678Z,39.69
2019-05-13T18:09:31.828Z,39.68
2019-05-13T18:12:02.479Z,40.43
2019-05-13T18:14:30.720Z,40.68
2019-05-13T18:17:01.348Z,41.45
2019-05-13T18:19:31.490Z,41.49
2019-05-13T18:22:01.952Z,41.75
2019-05-13T18:24:31.830Z,42.29
2019-05-13T18:27:01.296Z,43.11
2019-05-13T18:29:31.667Z,43.38
2019-05-13T18:32:02.012Z,43.74
2019-05-13T18:34:32.138Z,44.16
2019-05-13T18:37:02.469Z,44.55
2019-05-13T18:39:32.247Z,45.50
2019-05-13T18:42:01.135Z,45.38
2019-05-13T18:44:31.476Z,45.85
2019-05-13T18:47:01.580Z,46.79
2019-05-13T18:49:31.795Z,47.30
2019-05-13T18:52:00.202Z,48.01
2019-05-13T18:54:28.656Z,48.34
2019-05-13T18:56:57.080Z,48.77
2019-05-13T18:59:25.556Z,49.13
2019-05-13T19:01:54.025Z,49.56
2019-05-13T19:04:22.425Z,49.69
2019-05-13T19:06:51.640Z,51.00
2019-05-13T19:09:21.713Z,50.63
2019-05-13T19:11:51.601Z,50.51
2019-05-13T19:14:21.230Z,50.75
2019-05-13T19:16:49.891Z,51.36
2019-05-13T19:19:20.691Z,52.40
2019-05-13T19:21:48.538Z,51.84
2019-05-13T19:24:16.993Z,52.24
2019-05-13T19:26:45.473Z,52.79
2019-05-13T19:29:13.897Z,53.60
2019-05-13T19:31:42.409Z,53.48
2019-05-13T19:34:12.588Z,53.79
2019-05-13T19:36:41.156Z,54.23
2019-05-13T19:39:11.462Z,54.85
2019-05-13T19:41:42.049Z,55.52
2019-05-13T19:44:10.095Z,56.19
2019-05-13T19:46:38.512Z,56.47
2019-05-13T19:49:06.982Z,56.97
2019-05-13T19:51:35.534Z,57.21
2019-05-13T19:54:03.959Z,58.61
2019-05-13T19:56:32.411Z,58.33
2019-05-13T19:59:01.532Z,58.87
2019-05-13T20:01:32.201Z,59.36
2019-05-13T20:04:02.329Z,59.85
2019-05-13T20:06:31.966Z,59.95
2019-05-13T20:09:01.474Z,60.67
2019-05-13T20:11:30.087Z,61.13
2019-05-13T20:13:58.513Z,61.70
2019-05-13T20:16:26.940Z,62.23
2019-05-13T20:18:55.350Z,62.64
2019-05-13T20:21:24.072Z,62.97
2019-05-13T20:23:52.490Z,63.99
2019-05-13T20:26:22.717Z,64.23
2019-05-13T20:28:51.365Z,64.86
2019-05-13T20:31:21.717Z,65.19
2019-05-13T20:33:51.545Z,65.52
2019-05-13T20:36:22.178Z,65.67
2019-05-13T20:38:51.595Z,66.29
2019-05-13T20:41:22.396Z,66.78
2019-05-13T20:43:52.040Z,67.25
2019-05-13T20:46:22.979Z,67.32
2019-05-13T20:48:51.943Z,67.87
2019-05-13T20:51:21.973Z,68.06
2019-05-13T20:53:51.817Z,68.52
2019-05-13T20:56:21.384Z,69.18
2019-05-13T20:58:51.524Z,69.32
2019-05-13T21:01:20.157Z,69.83
2019-05-13T21:03:51.330Z,69.92
2019-05-13T21:06:18.837Z,70.37
2019-05-13T21:08:47.353Z,70.76
2019-05-13T21:11:15.764Z,71.17
2019-05-13T21:13:44.174Z,71.86
2019-05-13T21:16:14.166Z,71.91
2019-05-13T21:18:42.701Z,72.35
2019-05-13T21:21:11.782Z,72.67
2019-05-13T21:23:41.770Z,72.92
2019-05-13T21:26:14.721Z,73.61
2019-05-13T21:28:41.904Z,73.95
2019-05-13T21:31:11.355Z,74.39
2019-05-13T21:33:40.151Z,74.95
2019-05-13T21:36:08.533Z,74.98
2019-05-13T21:38:36.952Z,76.00
2019-05-13T21:41:05.371Z,75.88
2019-05-13T21:43:33.770Z,76.26
2019-05-13T21:46:02.412Z,76.72
2019-05-13T21:48:32.479Z,76.88
2019-05-13T21:51:01.183Z,77.65
2019-05-13T21:53:32.351Z,77.85
2019-05-13T21:56:02.123Z,78.02
2019-05-13T21:58:31.287Z,78.47
2019-05-13T22:01:01.700Z,79.08
2019-05-13T22:03:33.170Z,79.37
2019-05-13T22:06:01.914Z,79.44
2019-05-13T22:08:32.108Z,80.21
2019-05-13T22:11:01.774Z,80.57
2019-05-13T22:13:31.616Z,81.01
2019-05-13T22:16:01.733Z,80.91
2019-05-13T22:18:31.317Z,81.45
2019-05-13T22:21:01.310Z,82.00
2019-05-13T22:23:32.034Z,82.28
2019-05-13T22:26:01.632Z,81.94
2019-05-13T22:28:31.296Z,81.94
2019-05-13T22:31:01.310Z,82.07
2019-05-13T22:33:32.171Z,82.09
2019-05-13T22:36:01.592Z,82.25
2019-05-13T22:38:32.290Z,82.47
2019-05-13T22:41:01.232Z,83.34
2019-05-13T22:43:31.987Z,83.93
2019-05-13T22:46:00.936Z,84.02
2019-05-13T22:48:31.541Z,84.40
2019-05-13T22:51:01.386Z,84.26
2019-05-13T22:53:31.918Z,85.05
2019-05-13T22:55:59.873Z,85.23
2019-05-13T22:58:28.363Z,85.34
2019-05-13T23:00:56.800Z,85.89
2019-05-13T23:03:25.205Z,86.02
2019-05-13T23:05:53.635Z,86.66
2019-05-13T23:08:22.060Z,87.24
2019-05-13T23:10:51.508Z,87.90
2019-05-13T23:13:20.157Z,87.51
2019-05-13T23:15:56.201Z,88.00
2019-05-13T23:18:24.549Z,88.57
2019-05-13T23:20:53.003Z,88.69
2019-05-13T23:23:22.128Z,89.17
2019-05-13T23:25:51.042Z,88.93
2019-05-13T23:28:21.510Z,89.47
2019-05-13T23:30:51.178Z,89.75
2019-05-13T23:33:21.936Z,89.77
2019-05-13T23:35:50.083Z,89.93
2019-05-13T23:38:18.486Z,89.96
2019-05-13T23:40:46.919Z,90.52
2019-05-13T23:43:15.349Z,90.97
2019-05-13T23:45:43.748Z,91.24
2019-05-13T23:48:12.181Z,91.68
2019-05-13T23:50:41.503Z,91.50
2019-05-13T23:53:10.181Z,91.89
2019-05-13T23:55:38.612Z,92.49
2019-05-13T23:58:07.028Z,92.61
